Time;durP1;ratioP1;P1;durP2;ratioP2;P2;SDS_P1;SDS_P2;PMS_P1;PMS_P2;Temp;Humidity;BMP_temperature;BMP_pressure;BME280_temperature;BME280_humidity;BME280_pressure;Samples;Min_cycle;Max_cycle;Signal;HPM_P1;HPM_P2
2023/09/12 00:02:10;;;;;;;15.48;9.70;;;;;;;;;;4801352;29;20261;-91
2023/09/12 00:05:22;;;;;;;17.35;9.60;;;;;;;;;;4800828;29;20220;-90
2023/09/12 00:08:35;;;;;;;15.95;9.13;;;;;;;;;;4782429;30;20231;-91
2023/09/12 00:11:48;;;;;;;16.17;9.63;;;;;;;;;;4781582;29;20193;-92
2023/09/12 00:14:59;;;;;;;15.43;9.52;;;;;;;;;;4781653;30;20210;-90
2023/09/12 00:18:12;;;;;;;22.83;9.82;;;;;;;;;;4780554;29;20201;-92
2023/09/12 00:21:23;;;;;;;22.40;9.68;;;;;;;;;;4792956;29;20208;-91
2023/09/12 00:24:36;;;;;;;15.15;9.43;;;;;;;;;;4799392;29;20229;-90
2023/09/12 00:27:48;;;;;;;16.83;9.60;;;;;;;;;;4798575;30;20653;-91
2023/09/12 00:31:00;;;;;;;14.55;9.25;;;;;;;;;;4791256;29;20224;-90
2023/09/12 00:34:18;;;;;;;18.30;9.65;;;;;;;;;;4782752;29;20239;-91
2023/09/12 00:37:30;;;;;;;13.63;9.18;;;;;;;;;;4780784;29;20204;-91
2023/09/12 00:40:41;;;;;;;14.45;8.90;;;;;;;;;;4781442;29;20255;-90
2023/09/12 00:43:55;;;;;;;15.40;9.77;;;;;;;;;;4789281;29;20217;-91
2023/09/12 00:47:07;;;;;;;16.27;9.85;;;;;;;;;;4791138;29;20263;-92
2023/09/12 00:50:19;;;;;;;14.13;8.93;;;;;;;;;;4784022;29;21967;-91
2023/09/12 00:53:31;;;;;;;14.48;8.82;;;;;;;;;;4798679;30;20205;-89
2023/09/12 00:56:44;;;;;;;14.00;8.93;;;;;;;;;;4786538;30;20219;-91
2023/09/12 00:59:58;;;;;;;15.60;9.77;;;;;;;;;;4793387;29;20281;-92
2023/09/12 01:03:09;;;;;;;16.40;9.60;;;;;;;;;;4792901;30;20703;-92
2023/09/12 01:06:22;;;;;;;15.90;10.00;;;;;;;;;;4800014;29;20320;-89
2023/09/12 01:09:34;;;;;;;15.63;9.88;;;;;;;;;;4782430;29;20231;-90
2023/09/12 01:12:46;;;;;;;16.55;9.27;;;;;;;;;;4793862;30;20209;-90
2023/09/12 01:15:59;;;;;;;17.17;10.40;;;;;;;;;;4798222;29;20723;-92
2023/09/12 01:19:14;;;;;;;15.90;9.75;;;;;;;;;;4797638;30;20219;-88
2023/09/12 01:22:37;;;;;;;18.10;10.32;;;;;;;;;;4780031;30;20213;-91
2023/09/12 01:26:00;;;;;;;18.58;10.73;;;;;;;;;;4781057;30;20205;-91
2023/09/12 01:29:14;;;;;;;17.27;11.02;;;;;;;;;;4782120;29;20198;-92
2023/09/12 01:32:25;;;;;;;16.85;9.90;;;;;;;;;;4784923;30;20204;-91
2023/09/12 01:35:36;;;;;;;16.80;10.68;;;;;;;;;;4780841;29;20202;-91
2023/09/12 01:38:48;;;;;;;15.85;10.18;;;;;;;;;;4781285;29;20197;-90
2023/09/12 01:42:00;;;;;;;22.23;10.77;;;;;;;;;;4795220;30;20279;-91
2023/09/12 01:45:15;;;;;;;19.02;10.60;;;;;;;;;;4781051;29;20205;-88
2023/09/12 01:48:33;;;;;;;16.02;9.88;;;;;;;;;;4781573;29;20353;-90
2023/09/12 01:51:44;;;;;;;16.80;9.98;;;;;;;;;;4782292;29;20234;-90
2023/09/12 01:54:56;;;;;;;17.95;9.65;;;;;;;;;;4781677;29;20284;-92
2023/09/12 01:58:08;;;;;;;19.30;10.07;;;;;;;;;;4782105;30;20197;-90
2023/09/12 02:01:22;;;;;;;19.23;9.85;;;;;;;;;;4781839;30;20197;-92
2023/09/12 02:04:33;;;;;;;15.45;9.93;;;;;;;;;;4780894;29;20194;-91
2023/09/12 02:07:45;;;;;;;21.23;9.57;;;;;;;;;;4782570;29;20299;-92
2023/09/12 02:10:56;;;;;;;16.48;10.02;;;;;;;;;;4782367;29;20169;-93
2023/09/12 02:14:10;;;;;;;14.65;9.52;;;;;;;;;;4781488;29;20209;-92
2023/09/12 02:17:23;;;;;;;20.42;10.32;;;;;;;;;;4780254;29;20243;-94
2023/09/12 02:20:34;;;;;;;18.30;10.85;;;;;;;;;;4784919;29;20210;-93
2023/09/12 02:23:46;;;;;;;20.08;10.20;;;;;;;;;;4809693;29;20212;-93
2023/09/12 02:26:58;;;;;;;14.27;9.35;;;;;;;;;;4799631;29;20217;-90
2023/09/12 02:30:10;;;;;;;13.90;9.43;;;;;;;;;;4800770;29;20209;-91
2023/09/12 02:33:23;;;;;;;18.67;10.00;;;;;;;;;;4781551;29;20194;-93
2023/09/12 02:36:36;;;;;;;15.15;9.27;;;;;;;;;;4781190;30;20203;-92
2023/09/12 02:39:47;;;;;;;20.02;10.45;;;;;;;;;;4780733;29;20205;-91
2023/09/12 02:42:59;;;;;;;19.08;10.15;;;;;;;;;;4782140;30;20185;-93
2023/09/12 02:46:11;;;;;;;15.55;9.77;;;;;;;;;;4798604;30;20313;-91
2023/09/12 02:49:25;;;;;;;16.05;9.30;;;;;;;;;;4798413;29;20293;-93
2023/09/12 02:52:36;;;;;;;19.75;9.75;;;;;;;;;;4798773;30;20211;-92
2023/09/12 02:55:50;;;;;;;16.83;9.70;;;;;;;;;;4799522;30;20208;-91
2023/09/12 02:59:01;;;;;;;15.30;9.68;;;;;;;;;;4808544;29;20235;-93
2023/09/12 03:02:13;;;;;;;18.48;10.65;;;;;;;;;;4787256;30;20217;-91
2023/09/12 03:05:27;;;;;;;19.60;10.75;;;;;;;;;;4797874;30;20216;-93
2023/09/12 03:08:38;;;;;;;16.98;10.68;;;;;;;;;;4797354;29;20219;-89
2023/09/12 03:11:50;;;;;;;17.48;10.65;;;;;;;;;;4780840;29;20563;-91
2023/09/12 03:15:03;;;;;;;16.33;10.15;;;;;;;;;;4784018;30;20254;-90
2023/09/12 03:18:14;;;;;;;19.88;10.43;;;;;;;;;;4784533;29;20204;-93
2023/09/12 03:21:27;;;;;;;18.27;10.98;;;;;;;;;;4800942;29;20296;-92
2023/09/12 03:24:38;;;;;;;15.13;10.02;;;;;;;;;;4800239;30;20201;-94
2023/09/12 03:27:51;;;;;;;15.98;10.65;;;;;;;;;;4789029;29;20235;-91
2023/09/12 03:31:05;;;;;;;16.08;10.02;;;;;;;;;;4801223;30;20188;-92
2023/09/12 03:34:17;;;;;;;17.40;10.80;;;;;;;;;;4794887;30;20237;-93
2023/09/12 03:37:31;;;;;;;17.23;10.48;;;;;;;;;;4795160;29;20220;-92
2023/09/12 03:40:43;;;;;;;17.17;10.27;;;;;;;;;;4798231;29;20314;-92
2023/09/12 03:43:55;;;;;;;20.50;10.77;;;;;;;;;;4782567;30;20282;-95
2023/09/12 03:47:07;;;;;;;17.67;10.35;;;;;;;;;;4783760;29;20267;-93
2023/09/12 03:50:19;;;;;;;18.65;10.43;;;;;;;;;;4782822;30;20340;-91
2023/09/12 03:53:36;;;;;;;18.92;10.07;;;;;;;;;;4786790;29;20343;-91
2023/09/12 03:56:47;;;;;;;19.08;10.38;;;;;;;;;;4803960;29;20354;-90
2023/09/12 04:00:00;;;;;;;18.45;10.02;;;;;;;;;;4795701;29;20584;-92
2023/09/12 04:03:11;;;;;;;15.00;9.93;;;;;;;;;;4805043;29;20201;-91
2023/09/12 04:06:24;;;;;;;18.35;10.05;;;;;;;;;;4786614;29;20212;-89
2023/09/12 04:09:37;;;;;;;19.52;10.98;;;;;;;;;;4791469;29;20225;-91
2023/09/12 04:12:49;;;;;;;19.15;10.65;;;;;;;;;;4801571;29;20247;-92
2023/09/12 04:16:00;;;;;;;17.88;10.65;;;;;;;;;;4801889;29;20215;-93
2023/09/12 04:19:13;;;;;;;16.77;9.98;;;;;;;;;;4802764;30;20214;-88
2023/09/12 04:22:24;;;;;;;18.63;10.95;;;;;;;;;;4795849;30;20343;-91
2023/09/12 04:25:38;;;;;;;21.45;10.55;;;;;;;;;;4804780;30;20221;-91
2023/09/12 04:28:50;;;;;;;18.45;9.63;;;;;;;;;;4789365;30;20232;-91
2023/09/12 04:32:03;;;;;;;17.02;10.15;;;;;;;;;;4802239;29;20216;-89
2023/09/12 04:35:15;;;;;;;19.92;11.57;;;;;;;;;;4804125;29;20212;-92
2023/09/12 04:38:26;;;;;;;19.83;9.77;;;;;;;;;;4805367;29;20237;-93
2023/09/12 04:41:43;;;;;;;19.15;11.55;;;;;;;;;;4805763;29;20255;-90
2023/09/12 04:44:55;;;;;;;14.32;9.52;;;;;;;;;;4796479;29;20227;-92
2023/09/12 04:48:07;;;;;;;23.77;10.05;;;;;;;;;;4805108;29;20290;-90
2023/09/12 04:51:20;;;;;;;16.85;10.30;;;;;;;;;;4786987;29;20247;-91
2023/09/12 04:54:32;;;;;;;17.63;10.15;;;;;;;;;;4787758;29;20312;-91
2023/09/12 04:57:46;;;;;;;16.88;10.60;;;;;;;;;;4798150;30;20252;-88
2023/09/12 05:00:57;;;;;;;17.75;11.40;;;;;;;;;;4793480;29;20243;-91
2023/09/12 05:04:10;;;;;;;18.17;11.13;;;;;;;;;;4791912;29;20361;-87
2023/09/12 05:07:22;;;;;;;20.55;12.13;;;;;;;;;;4800082;30;20276;-88
2023/09/12 05:10:34;;;;;;;17.48;10.77;;;;;;;;;;4800556;30;20213;-88
2023/09/12 05:13:47;;;;;;;17.85;11.07;;;;;;;;;;4790072;30;20233;-90
2023/09/12 05:17:01;;;;;;;18.25;10.38;;;;;;;;;;4802131;30;20334;-88
2023/09/12 05:20:14;;;;;;;19.33;11.18;;;;;;;;;;4794962;29;20266;-90
2023/09/12 05:23:25;;;;;;;15.98;9.32;;;;;;;;;;4792823;30;20205;-87
2023/09/12 05:26:37;;;;;;;15.40;9.30;;;;;;;;;;4802619;29;20280;-88
2023/09/12 05:29:51;;;;;;;17.80;9.25;;;;;;;;;;4802065;29;20247;-88
2023/09/12 05:33:03;;;;;;;15.07;9.48;;;;;;;;;;4800576;30;20289;-89
2023/09/12 05:36:14;;;;;;;14.88;9.07;;;;;;;;;;4801356;29;20228;-88
2023/09/12 05:39:26;;;;;;;15.25;8.38;;;;;;;;;;4787325;29;20213;-87
2023/09/12 05:42:38;;;;;;;15.23;8.32;;;;;;;;;;4801450;29;20192;-89
2023/09/12 05:45:52;;;;;;;16.35;8.77;;;;;;;;;;4801635;29;20263;-89
2023/09/12 05:49:04;;;;;;;17.55;8.50;;;;;;;;;;4786488;30;20300;-89
2023/09/12 05:52:16;;;;;;;15.82;8.60;;;;;;;;;;4784179;30;20201;-89
2023/09/12 05:55:28;;;;;;;12.40;8.25;;;;;;;;;;4798051;30;20220;-89
2023/09/12 05:58:42;;;;;;;13.10;8.73;;;;;;;;;;4803802;29;20224;-91
2023/09/12 06:01:56;;;;;;;17.80;9.55;;;;;;;;;;4807642;29;20225;-90
2023/09/12 06:05:12;;;;;;;15.23;9.30;;;;;;;;;;4784121;30;20205;-88
2023/09/12 06:08:24;;;;;;;14.70;8.80;;;;;;;;;;4783576;29;20221;-89
2023/09/12 06:11:35;;;;;;;20.40;9.10;;;;;;;;;;4784199;29;20185;-90
2023/09/12 06:14:47;;;;;;;17.65;9.15;;;;;;;;;;4782787;30;20206;-88
2023/09/12 06:17:59;;;;;;;17.92;9.32;;;;;;;;;;4784618;30;20288;-90
2023/09/12 06:21:11;;;;;;;17.65;8.50;;;;;;;;;;4785460;29;20202;-90
2023/09/12 06:24:24;;;;;;;15.77;8.02;;;;;;;;;;4783665;30;20564;-89
2023/09/12 06:27:39;;;;;;;11.68;7.97;;;;;;;;;;4784427;30;20217;-89
2023/09/12 06:30:51;;;;;;;12.48;8.57;;;;;;;;;;4795421;30;20269;-91
2023/09/12 06:34:04;;;;;;;14.20;7.75;;;;;;;;;;4785491;29;20221;-90
2023/09/12 06:37:16;;;;;;;14.60;8.23;;;;;;;;;;4783383;30;20213;-87
2023/09/12 06:40:29;;;;;;;14.15;8.05;;;;;;;;;;4783050;29;20259;-90
2023/09/12 06:43:40;;;;;;;16.92;8.50;;;;;;;;;;4785093;29;20217;-89
2023/09/12 06:46:53;;;;;;;12.98;8.45;;;;;;;;;;4787133;29;20224;-87
2023/09/12 06:50:08;;;;;;;15.32;9.23;;;;;;;;;;4796086;29;20217;-89
2023/09/12 06:53:21;;;;;;;17.88;9.85;;;;;;;;;;4788681;30;20259;-89
2023/09/12 06:56:37;;;;;;;17.25;9.40;;;;;;;;;;4787129;30;20349;-91
2023/09/12 06:59:49;;;;;;;14.38;9.13;;;;;;;;;;4783003;30;20205;-88
2023/09/12 07:03:01;;;;;;;17.88;8.20;;;;;;;;;;4783963;30;20247;-88
2023/09/12 07:06:15;;;;;;;15.52;8.75;;;;;;;;;;4783633;30;20197;-92
2023/09/12 07:09:26;;;;;;;17.63;9.07;;;;;;;;;;4783138;29;20351;-91
2023/09/12 07:12:38;;;;;;;13.25;8.45;;;;;;;;;;4782369;29;20302;-92
2023/09/12 07:15:49;;;;;;;15.00;9.00;;;;;;;;;;4782777;29;20201;-89
2023/09/12 07:19:03;;;;;;;14.90;9.50;;;;;;;;;;4782004;29;20205;-89
2023/09/12 07:22:16;;;;;;;15.38;8.63;;;;;;;;;;4792613;29;20282;-91
2023/09/12 07:25:27;;;;;;;14.25;8.65;;;;;;;;;;4781581;29;20190;-91
2023/09/12 07:28:40;;;;;;;12.18;8.25;;;;;;;;;;4782740;29;20290;-89
2023/09/12 07:31:54;;;;;;;14.65;8.52;;;;;;;;;;4782211;30;20327;-89
2023/09/12 07:35:13;;;;;;;21.80;13.82;;;;;;;;;;4782313;29;20198;-90
2023/09/12 07:38:26;;;;;;;14.13;8.90;;;;;;;;;;4782962;29;20209;-92
2023/09/12 07:41:37;;;;;;;15.70;9.13;;;;;;;;;;4778874;29;20231;-90
2023/09/12 07:44:50;;;;;;;15.10;9.32;;;;;;;;;;4777992;30;20197;-90
2023/09/12 07:48:01;;;;;;;13.93;8.70;;;;;;;;;;4778204;30;20205;-92
2023/09/12 07:51:17;;;;;;;12.73;8.30;;;;;;;;;;4779197;30;20262;-90
2023/09/12 07:54:31;;;;;;;15.35;8.85;;;;;;;;;;4778352;30;20205;-92
2023/09/12 07:57:43;;;;;;;17.98;8.70;;;;;;;;;;4778322;30;20209;-89
2023/09/12 08:00:55;;;;;;;16.33;8.88;;;;;;;;;;4784620;30;20205;-91
2023/09/12 08:04:06;;;;;;;13.10;8.70;;;;;;;;;;4781902;30;20198;-88
2023/09/12 08:07:18;;;;;;;14.48;7.85;;;;;;;;;;4780266;29;20618;-90
2023/09/12 08:10:32;;;;;;;12.88;8.25;;;;;;;;;;4778928;30;20194;-89
2023/09/12 08:13:44;;;;;;;14.82;7.45;;;;;;;;;;4780589;29;20194;-90
2023/09/12 08:16:55;;;;;;;12.05;8.25;;;;;;;;;;4790568;30;20205;-91
2023/09/12 08:20:11;;;;;;;13.07;7.30;;;;;;;;;;4784266;30;20213;-90
2023/09/12 08:23:23;;;;;;;11.15;7.57;;;;;;;;;;4784482;30;20290;-89
2023/09/12 08:26:36;;;;;;;12.93;6.90;;;;;;;;;;4784464;30;20201;-90
2023/09/12 08:29:48;;;;;;;9.50;6.65;;;;;;;;;;4784900;29;20745;-92
2023/09/12 08:33:03;;;;;;;13.48;6.97;;;;;;;;;;4795045;30;20197;-90
2023/09/12 08:36:14;;;;;;;12.10;6.45;;;;;;;;;;4784050;30;20208;-88
2023/09/12 08:39:27;;;;;;;8.20;6.50;;;;;;;;;;4794443;29;20277;-88
2023/09/12 08:42:43;;;;;;;12.07;6.60;;;;;;;;;;4786116;29;20193;-90
2023/09/12 08:45:55;;;;;;;9.63;6.53;;;;;;;;;;4784898;29;20222;-93
2023/09/12 08:49:09;;;;;;;10.88;6.57;;;;;;;;;;4784823;30;20246;-88
2023/09/12 08:52:20;;;;;;;10.05;6.55;;;;;;;;;;4794732;29;20212;-89
2023/09/12 08:55:35;;;;;;;12.82;7.28;;;;;;;;;;4785957;30;20408;-91
2023/09/12 08:58:49;;;;;;;12.80;7.72;;;;;;;;;;4785656;29;20204;-93
2023/09/12 09:02:02;;;;;;;13.43;6.85;;;;;;;;;;4785444;30;20572;-89
2023/09/12 09:05:15;;;;;;;13.05;6.90;;;;;;;;;;4797673;29;20205;-89
2023/09/12 09:08:28;;;;;;;12.43;7.18;;;;;;;;;;4786178;30;20234;-91
2023/09/12 09:11:39;;;;;;;12.65;7.55;;;;;;;;;;4785782;30;20254;-91
2023/09/12 09:14:53;;;;;;;13.55;7.50;;;;;;;;;;4786470;30;20266;-90
2023/09/12 09:18:06;;;;;;;14.15;7.05;;;;;;;;;;4798430;29;20197;-89
2023/09/12 09:21:19;;;;;;;13.18;6.93;;;;;;;;;;4785449;29;20234;-89
2023/09/12 09:24:32;;;;;;;9.73;6.57;;;;;;;;;;4795752;29;20254;-90
2023/09/12 09:27:43;;;;;;;8.63;6.53;;;;;;;;;;4785703;30;20274;-89
2023/09/12 09:31:12;;;;;;;12.23;6.93;;;;;;;;;;4785969;30;20229;-89
2023/09/12 09:34:24;;;;;;;9.82;6.10;;;;;;;;;;4784537;29;20208;-88
2023/09/12 09:37:35;;;;;;;8.82;5.93;;;;;;;;;;4785406;29;20277;-92
2023/09/12 09:40:47;;;;;;;8.50;6.10;;;;;;;;;;4784914;30;20227;-90
2023/09/12 09:43:59;;;;;;;7.57;5.80;;;;;;;;;;4785122;29;20201;-92
2023/09/12 09:47:12;;;;;;;8.52;5.80;;;;;;;;;;4784357;29;20208;-93
2023/09/12 09:50:24;;;;;;;8.82;6.40;;;;;;;;;;4787664;30;20431;-92
2023/09/12 09:53:37;;;;;;;7.57;5.88;;;;;;;;;;4784519;30;20224;-87
2023/09/12 09:56:49;;;;;;;9.18;5.82;;;;;;;;;;4785674;30;20680;-89
2023/09/12 10:00:01;;;;;;;9.23;6.30;;;;;;;;;;4783839;29;20366;-89
2023/09/12 10:03:14;;;;;;;8.68;6.13;;;;;;;;;;4785012;30;20211;-89
2023/09/12 10:06:29;;;;;;;8.38;6.43;;;;;;;;;;4785505;30;20758;-89
2023/09/12 10:09:42;;;;;;;8.52;6.20;;;;;;;;;;4792528;29;20326;-88
2023/09/12 10:12:56;;;;;;;9.95;5.72;;;;;;;;;;4781781;29;20197;-89
2023/09/12 10:16:08;;;;;;;10.23;6.28;;;;;;;;;;4784172;29;20261;-91
2023/09/12 10:19:22;;;;;;;9.38;5.50;;;;;;;;;;4784544;30;20193;-89
2023/09/12 10:22:36;;;;;;;8.95;5.95;;;;;;;;;;4793310;30;20204;-89
2023/09/12 10:25:49;;;;;;;8.55;5.70;;;;;;;;;;4783726;30;20197;-90
2023/09/12 10:29:02;;;;;;;8.57;5.80;;;;;;;;;;4791572;29;20228;-92
2023/09/12 10:32:14;;;;;;;7.50;5.72;;;;;;;;;;4800331;29;20267;-89
2023/09/12 10:35:28;;;;;;;7.13;5.55;;;;;;;;;;4795977;29;20203;-94
2023/09/12 10:38:44;;;;;;;8.07;5.80;;;;;;;;;;4796413;30;20236;-92
2023/09/12 10:41:56;;;;;;;7.43;5.47;;;;;;;;;;4802379;30;20286;-90
2023/09/12 10:45:10;;;;;;;9.35;6.38;;;;;;;;;;4791647;29;20293;-91
2023/09/12 10:48:21;;;;;;;8.98;6.35;;;;;;;;;;4802791;30;20204;-89
2023/09/12 10:51:36;;;;;;;8.48;6.18;;;;;;;;;;4785803;29;20251;-92
2023/09/12 10:54:48;;;;;;;9.45;6.00;;;;;;;;;;4788739;30;20338;-91
2023/09/12 10:58:03;;;;;;;9.48;6.55;;;;;;;;;;4784773;30;20284;-92
2023/09/12 11:01:25;;;;;;;9.73;6.07;;;;;;;;;;4792462;29;20216;-90
2023/09/12 11:04:38;;;;;;;8.13;5.82;;;;;;;;;;4796787;29;20192;-91
2023/09/12 11:07:52;;;;;;;7.70;5.47;;;;;;;;;;4799845;29;20192;-90
2023/09/12 11:11:20;;;;;;;10.18;5.72;;;;;;;;;;4798106;29;20215;-91
2023/09/12 11:14:32;;;;;;;10.40;5.47;;;;;;;;;;4790657;29;20188;-92
2023/09/12 11:17:44;;;;;;;7.57;5.50;;;;;;;;;;4782447;29;20225;-88
2023/09/12 11:21:03;;;;;;;9.45;5.45;;;;;;;;;;4790839;30;20204;-89
2023/09/12 11:24:16;;;;;;;8.07;5.88;;;;;;;;;;4796004;29;20341;-90
2023/09/12 11:27:32;;;;;;;6.97;5.50;;;;;;;;;;4797539;29;20210;-90
2023/09/12 11:30:57;;;;;;;11.02;5.65;;;;;;;;;;4780103;29;20228;-91
2023/09/12 11:34:11;;;;;;;8.73;5.65;;;;;;;;;;4793136;30;20199;-89
2023/09/12 11:37:26;;;;;;;14.98;6.50;;;;;;;;;;4790135;29;20244;-89
2023/09/12 11:40:47;;;;;;;10.45;6.93;;;;;;;;;;4782606;29;20284;-90
2023/09/12 11:43:59;;;;;;;7.28;5.70;;;;;;;;;;4794901;29;20220;-89
2023/09/12 11:47:12;;;;;;;9.63;5.80;;;;;;;;;;4801671;29;20199;-91
2023/09/12 11:50:28;;;;;;;9.15;5.80;;;;;;;;;;4802008;29;20757;-87
2023/09/12 11:53:41;;;;;;;6.90;5.50;;;;;;;;;;4803955;29;20204;-89
2023/09/12 11:56:56;;;;;;;9.75;6.00;;;;;;;;;;4801938;30;20220;-91
2023/09/12 12:00:09;;;;;;;8.45;5.65;;;;;;;;;;4802650;29;20219;-91
2023/09/12 12:03:25;;;;;;;7.93;5.75;;;;;;;;;;4799579;29;20768;-91
2023/09/12 12:06:36;;;;;;;8.38;6.35;;;;;;;;;;4802583;29;20231;-91
2023/09/12 12:09:50;;;;;;;8.45;5.57;;;;;;;;;;4799701;29;20228;-92
2023/09/12 12:13:03;;;;;;;6.72;5.20;;;;;;;;;;4795413;29;20192;-90
2023/09/12 12:16:18;;;;;;;7.32;5.80;;;;;;;;;;4784271;30;20238;-94
2023/09/12 12:19:29;;;;;;;10.93;6.18;;;;;;;;;;4783407;30;20185;-90
2023/09/12 12:22:42;;;;;;;8.82;5.38;;;;;;;;;;4781306;29;20185;-90
2023/09/12 12:25:54;;;;;;;7.65;5.35;;;;;;;;;;4783208;29;20200;-89
2023/09/12 12:29:08;;;;;;;9.80;6.40;;;;;;;;;;4783626;30;20204;-91
2023/09/12 12:32:20;;;;;;;10.48;5.82;;;;;;;;;;4783285;29;20196;-91
2023/09/12 12:35:33;;;;;;;10.13;5.85;;;;;;;;;;4781283;30;20545;-88
2023/09/12 12:38:47;;;;;;;12.38;5.82;;;;;;;;;;4792129;29;20201;-91
2023/09/12 12:41:59;;;;;;;7.90;4.85;;;;;;;;;;4783398;29;20193;-92
2023/09/12 12:45:15;;;;;;;8.00;5.40;;;;;;;;;;4780424;29;20196;-92
2023/09/12 12:48:32;;;;;;;8.70;5.60;;;;;;;;;;4780644;30;20201;-87
2023/09/12 12:51:44;;;;;;;12.07;6.13;;;;;;;;;;4781152;30;20206;-90
2023/09/12 12:55:04;;;;;;;9.52;5.28;;;;;;;;;;4781284;30;20204;-92
2023/09/12 12:58:17;;;;;;;10.85;5.63;;;;;;;;;;4780161;30;20296;-90
2023/09/12 13:01:31;;;;;;;11.50;5.35;;;;;;;;;;4780822;30;20195;-91
2023/09/12 13:04:42;;;;;;;7.18;5.45;;;;;;;;;;4781522;30;20209;-94
2023/09/12 13:07:54;;;;;;;6.57;5.03;;;;;;;;;;4781098;29;20212;-90
2023/09/12 13:11:05;;;;;;;7.53;5.53;;;;;;;;;;4787282;30;20224;-90
2023/09/12 13:14:19;;;;;;;9.70;5.50;;;;;;;;;;4782791;30;20212;-86
2023/09/12 13:17:32;;;;;;;6.05;4.88;;;;;;;;;;4782785;29;20669;-91
2023/09/12 13:20:43;;;;;;;6.60;5.05;;;;;;;;;;4796054;30;20196;-90
2023/09/12 13:23:55;;;;;;;6.50;5.22;;;;;;;;;;4789056;29;20207;-89
2023/09/12 13:27:06;;;;;;;7.68;5.35;;;;;;;;;;4790408;30;20227;-91
2023/09/12 13:30:18;;;;;;;10.32;5.72;;;;;;;;;;4784880;30;20612;-90
2023/09/12 13:33:33;;;;;;;8.23;5.72;;;;;;;;;;4785335;30;20232;-88
2023/09/12 13:36:44;;;;;;;11.50;7.45;;;;;;;;;;4781685;30;20208;-90
2023/09/12 13:39:58;;;;;;;12.55;5.85;;;;;;;;;;4780645;30;20220;-90
2023/09/12 13:43:10;;;;;;;9.02;5.57;;;;;;;;;;4796399;30;20211;-91
2023/09/12 13:46:21;;;;;;;9.13;5.72;;;;;;;;;;4791204;30;20358;-89
2023/09/12 13:49:34;;;;;;;9.80;5.88;;;;;;;;;;4790087;30;20220;-91
2023/09/12 13:52:46;;;;;;;8.25;5.90;;;;;;;;;;4805321;29;20219;-90
2023/09/12 13:55:58;;;;;;;10.18;6.03;;;;;;;;;;4799215;29;20291;-89
2023/09/12 13:59:10;;;;;;;9.55;6.75;;;;;;;;;;4788285;30;20199;-90
2023/09/12 14:02:21;;;;;;;11.95;7.75;;;;;;;;;;4793225;30;20208;-90
2023/09/12 14:05:35;;;;;;;9.00;5.85;;;;;;;;;;4799864;30;20701;-90
2023/09/12 14:08:46;;;;;;;7.22;5.80;;;;;;;;;;4780688;29;20292;-89
2023/09/12 14:11:57;;;;;;;10.50;6.47;;;;;;;;;;4784242;30;20236;-91
2023/09/12 14:15:14;;;;;;;11.13;5.82;;;;;;;;;;4798549;29;20201;-89
2023/09/12 14:18:26;;;;;;;10.82;6.32;;;;;;;;;;4800244;30;20197;-88
2023/09/12 14:21:39;;;;;;;9.02;6.28;;;;;;;;;;4796298;30;20226;-89
2023/09/12 14:24:50;;;;;;;11.30;6.43;;;;;;;;;;4789756;30;20212;-92
2023/09/12 14:28:04;;;;;;;10.02;6.25;;;;;;;;;;4797782;30;20220;-89
2023/09/12 14:31:17;;;;;;;15.70;6.40;;;;;;;;;;4797280;30;20232;-90
2023/09/12 14:34:31;;;;;;;10.48;6.28;;;;;;;;;;4797417;30;20208;-90
2023/09/12 14:37:44;;;;;;;12.75;6.25;;;;;;;;;;4781152;30;20250;-91
2023/09/12 14:40:56;;;;;;;9.35;6.45;;;;;;;;;;4780421;30;20209;-88
2023/09/12 14:44:08;;;;;;;8.63;6.10;;;;;;;;;;4785903;30;20209;-91
2023/09/12 14:47:49;;;;;;;8.93;6.55;;;;;;;;;;4781521;30;20216;-87
2023/09/12 14:51:02;;;;;;;8.63;5.93;;;;;;;;;;4798239;30;20234;-89
2023/09/12 14:54:18;;;;;;;13.20;6.07;;;;;;;;;;4783446;30;20209;-88
2023/09/12 14:57:29;;;;;;;11.82;6.68;;;;;;;;;;4795285;30;20884;-91
2023/09/12 15:00:42;;;;;;;8.15;6.13;;;;;;;;;;4798284;30;20567;-92
2023/09/12 15:03:53;;;;;;;10.60;6.13;;;;;;;;;;4799025;30;20349;-92
2023/09/12 15:07:06;;;;;;;12.68;7.05;;;;;;;;;;4795474;29;20225;-90
2023/09/12 15:10:21;;;;;;;12.88;6.63;;;;;;;;;;4794112;30;20338;-89
2023/09/12 15:13:32;;;;;;;10.00;6.28;;;;;;;;;;4801198;30;20200;-91
2023/09/12 15:16:45;;;;;;;9.43;6.70;;;;;;;;;;4800441;30;20707;-89
2023/09/12 15:19:57;;;;;;;10.00;5.55;;;;;;;;;;4799773;30;20243;-89
2023/09/12 15:23:08;;;;;;;11.93;7.88;;;;;;;;;;4785720;30;20204;-91
2023/09/12 15:26:21;;;;;;;10.85;6.15;;;;;;;;;;4792884;30;20346;-88
2023/09/12 15:29:32;;;;;;;7.65;6.07;;;;;;;;;;4798595;30;20212;-92
2023/09/12 15:32:43;;;;;;;10.45;6.28;;;;;;;;;;4800673;30;20327;-91
2023/09/12 15:39:19;;;;;;;9.48;6.07;;;;;;;;;;4798789;30;20238;-89
2023/09/12 15:42:33;;;;;;;8.23;5.18;;;;;;;;;;4789991;30;20205;-91
2023/09/12 15:45:44;;;;;;;10.25;6.38;;;;;;;;;;4795459;30;20301;-90
2023/09/12 15:48:57;;;;;;;7.85;5.93;;;;;;;;;;4800261;30;20277;-90
2023/09/12 15:52:08;;;;;;;11.93;6.57;;;;;;;;;;4798504;30;20285;-91
2023/09/12 15:55:19;;;;;;;10.43;5.72;;;;;;;;;;4795351;30;20204;-87
2023/09/12 15:58:32;;;;;;;10.52;6.03;;;;;;;;;;4785568;30;20215;-87
2023/09/12 16:01:43;;;;;;;14.25;7.15;;;;;;;;;;4779232;30;20229;-90
2023/09/12 16:04:56;;;;;;;11.02;5.88;;;;;;;;;;4790079;30;20213;-85
2023/09/12 16:08:08;;;;;;;10.00;6.88;;;;;;;;;;4795604;30;20216;-91
2023/09/12 16:11:20;;;;;;;13.45;6.95;;;;;;;;;;4781761;30;20229;-91
2023/09/12 16:14:33;;;;;;;11.95;7.20;;;;;;;;;;4790167;30;20228;-92
2023/09/12 16:17:45;;;;;;;15.82;7.60;;;;;;;;;;4798882;30;20196;-90
2023/09/12 16:20:56;;;;;;;12.77;6.93;;;;;;;;;;4800244;30;20207;-89
2023/09/12 16:24:12;;;;;;;14.68;6.90;;;;;;;;;;4799173;30;20216;-88
2023/09/12 16:27:25;;;;;;;15.55;7.63;;;;;;;;;;4791481;30;20250;-91
2023/09/12 16:30:38;;;;;;;12.65;7.65;;;;;;;;;;4798455;30;20231;-89
2023/09/12 16:33:50;;;;;;;9.55;6.93;;;;;;;;;;4803674;30;20204;-90
2023/09/12 16:37:03;;;;;;;10.70;7.28;;;;;;;;;;4804444;30;20208;-89
2023/09/12 16:40:15;;;;;;;12.25;7.38;;;;;;;;;;4802111;30;20245;-88
2023/09/12 16:43:26;;;;;;;15.98;8.52;;;;;;;;;;4801828;30;20202;-88
2023/09/12 16:46:40;;;;;;;40.75;24.33;;;;;;;;;;4799649;30;20743;-87
2023/09/12 16:49:52;;;;;;;20.70;12.20;;;;;;;;;;4808177;29;20209;-89
2023/09/12 16:53:05;;;;;;;18.65;9.43;;;;;;;;;;4787943;30;20200;-91
2023/09/12 16:56:16;;;;;;;20.58;9.07;;;;;;;;;;4801973;29;20196;-90
2023/09/12 16:59:28;;;;;;;13.05;8.23;;;;;;;;;;4783864;29;20193;-88
2023/09/12 17:02:41;;;;;;;13.38;8.55;;;;;;;;;;4786873;29;20693;-89
2023/09/12 17:05:53;;;;;;;15.57;8.57;;;;;;;;;;4785406;29;20188;-89
2023/09/12 17:09:04;;;;;;;17.25;8.55;;;;;;;;;;4784500;29;20349;-91
2023/09/12 17:12:16;;;;;;;33.78;18.83;;;;;;;;;;4783843;29;20307;-91
2023/09/12 17:15:28;;;;;;;17.50;9.80;;;;;;;;;;4794238;29;20198;-87
2023/09/12 17:18:43;;;;;;;21.75;12.45;;;;;;;;;;4785327;29;20323;-89
2023/09/12 17:21:54;;;;;;;19.08;10.20;;;;;;;;;;4785733;29;20558;-91
2023/09/12 17:25:06;;;;;;;18.55;11.25;;;;;;;;;;4785606;29;20205;-85
2023/09/12 17:28:18;;;;;;;18.95;10.30;;;;;;;;;;4795261;29;20229;-91
2023/09/12 17:31:31;;;;;;;14.40;9.38;;;;;;;;;;4797675;29;20225;-90
2023/09/12 17:34:46;;;;;;;17.00;10.00;;;;;;;;;;4795215;29;20213;-91
2023/09/12 17:37:58;;;;;;;18.58;9.80;;;;;;;;;;4780814;29;20253;-92
2023/09/12 17:41:13;;;;;;;19.20;11.07;;;;;;;;;;4801205;29;20217;-89
2023/09/12 17:44:25;;;;;;;19.20;11.32;;;;;;;;;;4799874;30;20204;-88
2023/09/12 17:47:36;;;;;;;16.20;9.63;;;;;;;;;;4800025;29;20220;-90
2023/09/12 17:50:53;;;;;;;17.77;12.13;;;;;;;;;;4799523;29;20231;-92
2023/09/12 17:54:05;;;;;;;18.77;9.85;;;;;;;;;;4800399;30;20300;-88
2023/09/12 17:57:19;;;;;;;15.68;8.93;;;;;;;;;;4794642;30;20285;-91
2023/09/12 18:00:31;;;;;;;15.02;8.63;;;;;;;;;;4800596;29;20193;-91
2023/09/12 18:03:43;;;;;;;13.50;9.32;;;;;;;;;;4799989;29;20225;-88
2023/09/12 18:06:56;;;;;;;14.38;9.20;;;;;;;;;;4794282;29;20212;-90
2023/09/12 18:10:08;;;;;;;15.20;10.10;;;;;;;;;;4783488;29;20287;-91
2023/09/12 18:13:19;;;;;;;19.17;10.85;;;;;;;;;;4799728;29;20266;-90
2023/09/12 18:16:33;;;;;;;18.92;11.27;;;;;;;;;;4794639;29;20221;-91
2023/09/12 18:19:45;;;;;;;16.48;10.45;;;;;;;;;;4791580;29;20217;-88
2023/09/12 18:22:58;;;;;;;18.73;9.80;;;;;;;;;;4802566;29;20235;-87
2023/09/12 18:26:09;;;;;;;16.73;10.00;;;;;;;;;;4793590;29;20242;-89
2023/09/12 18:29:25;;;;;;;18.38;10.65;;;;;;;;;;4798853;29;20204;-91
2023/09/12 18:32:41;;;;;;;17.00;11.10;;;;;;;;;;4797872;29;20256;-89
2023/09/12 18:35:53;;;;;;;19.00;10.60;;;;;;;;;;4788613;30;20230;-92
2023/09/12 18:39:06;;;;;;;22.20;12.23;;;;;;;;;;4798301;29;20329;-89
2023/09/12 18:42:19;;;;;;;16.48;9.90;;;;;;;;;;4792229;30;20226;-90
2023/09/12 18:45:31;;;;;;;14.23;9.52;;;;;;;;;;4796605;30;20660;-90
2023/09/12 18:48:42;;;;;;;16.85;10.07;;;;;;;;;;4796162;30;20230;-90
2023/09/12 18:51:53;;;;;;;18.38;10.40;;;;;;;;;;4777391;30;20224;-90
2023/09/12 18:55:08;;;;;;;17.90;10.68;;;;;;;;;;4790143;30;20216;-90
2023/09/12 18:58:20;;;;;;;15.98;9.48;;;;;;;;;;4796328;30;20278;-88
2023/09/12 19:01:31;;;;;;;15.80;10.25;;;;;;;;;;4796807;30;20233;-89
2023/09/12 19:04:43;;;;;;;16.83;9.98;;;;;;;;;;4795894;30;20244;-89